createdAt,value
2024-01-16T00:00:18.738Z,-1.1
2024-01-16T00:01:19.184Z,-1.1
2024-01-16T00:02:19.672Z,-1.1
2024-01-16T00:03:19.953Z,-1.1
2024-01-16T00:04:20.140Z,-1.1
2024-01-16T00:05:20.448Z,-1.1
2024-01-16T00:06:20.740Z,-1.1
2024-01-16T00:07:20.939Z,-1.1
2024-01-16T00:08:21.136Z,-1.1
2024-01-16T00:09:21.357Z,-1.1
2024-01-16T00:10:21.513Z,-1.1
2024-01-16T00:11:21.724Z,-1.1
2024-01-16T00:12:21.912Z,-1.1
2024-01-16T00:13:22.085Z,-1.1
2024-01-16T00:14:22.290Z,-1.1
2024-01-16T00:15:22.478Z,-1.1
2024-01-16T00:16:22.675Z,-1.1
2024-01-16T00:17:22.876Z,-1.1
2024-01-16T00:18:23.380Z,-1.1
2024-01-16T00:19:23.861Z,-1.1
2024-01-16T00:20:24.133Z,-1.1
2024-01-16T00:21:24.363Z,-1.1
2024-01-16T00:22:24.575Z,-1.1
2024-01-16T00:23:24.884Z,-1.1
2024-01-16T00:24:25.077Z,-1.1
2024-01-16T00:25:25.240Z,-1.1
2024-01-16T00:26:25.466Z,-1.1
2024-01-16T00:27:25.809Z,-1.1
2024-01-16T00:28:25.953Z,-1.1
2024-01-16T00:29:26.151Z,-1.1
2024-01-16T00:30:26.493Z,-1.1
2024-01-16T00:31:26.709Z,-1.1
2024-01-16T00:32:27.021Z,-1.1
2024-01-16T00:33:27.477Z,-1.1
2024-01-16T00:34:27.938Z,-1.1
2024-01-16T00:35:28.314Z,-1.1
2024-01-16T00:36:28.536Z,-1.1
2024-01-16T00:37:28.721Z,-1.1
2024-01-16T00:38:28.966Z,-1.1
2024-01-16T00:39:29.274Z,-1.1
2024-01-16T00:40:29.557Z,-1.1
2024-01-16T00:41:29.785Z,-1.1
2024-01-16T00:42:29.971Z,-1.5
2024-01-16T00:43:30.126Z,-1.5
2024-01-16T00:44:30.343Z,-1.5
2024-01-16T00:45:30.611Z,-1.5
2024-01-16T00:46:30.756Z,-1.5
2024-01-16T00:47:31.119Z,-1.5
2024-01-16T00:48:31.627Z,-1.5
2024-01-16T00:49:32.014Z,-1.5
2024-01-16T00:50:32.345Z,-1.5
2024-01-16T00:51:32.656Z,-1.5
2024-01-16T00:52:32.817Z,-1.5
2024-01-16T00:53:33.047Z,-1.5
2024-01-16T00:54:33.265Z,-1.5
2024-01-16T00:55:33.434Z,-1.5
2024-01-16T00:56:33.630Z,-1.5
2024-01-16T00:57:33.849Z,-1.5
2024-01-16T00:58:34.038Z,-1.5
2024-01-16T00:59:34.261Z,-1.5
2024-01-16T01:00:34.568Z,-1.5
2024-01-16T01:01:34.732Z,-1.5
2024-01-16T01:02:35.013Z,-1.5
2024-01-16T01:03:35.526Z,-1.5
2024-01-16T01:04:36.044Z,-1.5
2024-01-16T01:05:36.597Z,-1.5
2024-01-16T01:06:37.007Z,-1.5
2024-01-16T01:07:37.184Z,-1.5
2024-01-16T01:08:37.463Z,-1.5
2024-01-16T01:09:37.645Z,-1.5
2024-01-16T01:10:37.842Z,-1.5
2024-01-16T01:11:38.224Z,-1.5
2024-01-16T01:12:38.469Z,-1.5
2024-01-16T01:13:38.629Z,-1.5
2024-01-16T01:14:39.007Z,-1.5
2024-01-16T01:15:39.357Z,-1.5
2024-01-16T01:16:39.514Z,-1.5
2024-01-16T01:17:39.836Z,-1.5
2024-01-16T01:18:40.267Z,-1.5
2024-01-16T01:19:40.717Z,-1.5
2024-01-16T01:20:41.046Z,-1.5
2024-01-16T01:21:41.294Z,-1.5
2024-01-16T01:22:41.446Z,-1.5
2024-01-16T01:23:41.743Z,-1.5
2024-01-16T01:24:41.989Z,-1.5
2024-01-16T01:25:42.148Z,-1.5
2024-01-16T01:26:42.472Z,-1.5
2024-01-16T01:27:42.846Z,-1.5
2024-01-16T01:28:43.009Z,-1.5
2024-01-16T01:29:43.453Z,-1.5
2024-01-16T01:30:43.843Z,-1.5
2024-01-16T01:31:44.069Z,-1.5
2024-01-16T01:32:44.400Z,-1.5
2024-01-16T01:33:44.794Z,-1.5
2024-01-16T01:34:45.210Z,-1.5
2024-01-16T01:35:45.535Z,-1.5
2024-01-16T01:36:45.762Z,-1.5
2024-01-16T01:37:45.964Z,-1.5
2024-01-16T01:38:46.264Z,-1.5
2024-01-16T01:39:46.548Z,-1.5
2024-01-16T01:40:46.705Z,-1.5
2024-01-16T01:41:46.911Z,-1.5
2024-01-16T01:42:47.163Z,-1.9
2024-01-16T01:43:47.303Z,-1.9
2024-01-16T01:44:47.551Z,-1.9
2024-01-16T01:45:47.810Z,-1.9
2024-01-16T01:46:47.979Z,-1.9
2024-01-16T01:47:48.265Z,-1.9
2024-01-16T01:48:48.750Z,-1.9
2024-01-16T01:49:49.394Z,-1.9
2024-01-16T01:50:49.709Z,-1.9
2024-01-16T01:51:49.993Z,-1.9
2024-01-16T01:52:50.154Z,-1.9
2024-01-16T01:53:50.386Z,-1.9
2024-01-16T01:54:50.595Z,-1.9
2024-01-16T01:55:50.750Z,-1.9
2024-01-16T01:56:50.964Z,-1.9
2024-01-16T01:57:51.212Z,-1.9
2024-01-16T01:58:51.361Z,-1.9
2024-01-16T01:59:51.639Z,-1.9
2024-01-16T02:00:51.918Z,-1.9
2024-01-16T02:01:52.118Z,-1.9
2024-01-16T02:02:52.513Z,-1.9
2024-01-16T02:03:52.869Z,-1.9
2024-01-16T02:04:53.154Z,-1.9
2024-01-16T02:05:53.552Z,-1.9
2024-01-16T02:06:53.902Z,-1.9
2024-01-16T02:07:54.057Z,-1.9
2024-01-16T02:08:54.277Z,-1.9
2024-01-16T02:09:54.566Z,-1.9
2024-01-16T02:10:54.734Z,-1.9
2024-01-16T02:11:55.038Z,-1.9
2024-01-16T02:12:55.367Z,-1.9
2024-01-16T02:13:55.503Z,-1.9
2024-01-16T02:14:55.809Z,-1.9
2024-01-16T02:15:55.972Z,-1.9
2024-01-16T02:16:56.129Z,-1.9
2024-01-16T02:17:56.402Z,-1.9
2024-01-16T02:18:56.768Z,-1.9
2024-01-16T02:19:56.995Z,-1.9
2024-01-16T02:20:57.133Z,-1.9
2024-01-16T02:21:57.283Z,-1.9
2024-01-16T02:22:57.466Z,-1.9
2024-01-16T02:23:57.688Z,-1.9
2024-01-16T02:24:57.919Z,-1.9
2024-01-16T02:25:58.124Z,-1.9
2024-01-16T02:26:58.459Z,-1.9
2024-01-16T02:27:58.690Z,-1.9
2024-01-16T02:28:58.830Z,-1.9
2024-01-16T02:29:58.988Z,-1.9
2024-01-16T02:30:59.252Z,-1.9
2024-01-16T02:31:59.526Z,-1.9
2024-01-16T02:32:59.940Z,-1.9
2024-01-16T02:34:00.519Z,-1.9
2024-01-16T02:35:00.952Z,-1.9
2024-01-16T02:36:01.132Z,-1.9
2024-01-16T02:37:01.281Z,-1.9
2024-01-16T02:38:01.445Z,-1.9
2024-01-16T02:39:01.639Z,-1.9
2024-01-16T02:40:01.779Z,-1.9
2024-01-16T02:41:01.915Z,-1.9
2024-01-16T02:42:02.089Z,-1.9
2024-01-16T02:43:02.261Z,-1.9
2024-01-16T02:44:02.418Z,-1.9
2024-01-16T02:45:02.577Z,-1.9
2024-01-16T02:46:02.724Z,-1.9
2024-01-16T02:47:02.923Z,-1.9
2024-01-16T02:48:03.277Z,-1.9
2024-01-16T02:49:03.749Z,-1.9
2024-01-16T02:50:04.119Z,-1.9
2024-01-16T02:51:04.445Z,-1.9
2024-01-16T02:52:04.620Z,-1.9
2024-01-16T02:53:04.935Z,-1.9
2024-01-16T02:54:05.299Z,-1.9
2024-01-16T02:55:05.439Z,-1.9
2024-01-16T02:56:05.710Z,-1.9
2024-01-16T02:57:06.001Z,-1.9
2024-01-16T02:58:06.146Z,-1.9
2024-01-16T02:59:06.361Z,-1.9
2024-01-16T03:00:06.587Z,-1.9
2024-01-16T03:01:06.854Z,-1.9
2024-01-16T03:02:07.169Z,-1.9
2024-01-16T03:03:07.508Z,-1.9
2024-01-16T03:04:07.888Z,-1.9
2024-01-16T03:05:08.184Z,-1.9
2024-01-16T03:06:08.729Z,-1.9
2024-01-16T03:07:09.114Z,-1.9
2024-01-16T03:08:09.367Z,-1.9
2024-01-16T03:09:09.869Z,-1.9
2024-01-16T03:10:10.044Z,-1.9
2024-01-16T03:11:10.277Z,-1.9
2024-01-16T03:12:10.573Z,-1.9
2024-01-16T03:13:10.744Z,-1.9
2024-01-16T03:14:11.028Z,-1.9
2024-01-16T03:15:11.244Z,-1.9
2024-01-16T03:16:11.396Z,-1.9
2024-01-16T03:17:11.602Z,-1.9
2024-01-16T03:18:12.190Z,-1.9
2024-01-16T03:19:12.753Z,-1.9
2024-01-16T03:20:13.185Z,-1.9
2024-01-16T03:21:13.392Z,-1.9
2024-01-16T03:22:13.533Z,-1.9
2024-01-16T03:23:13.732Z,-1.9
2024-01-16T03:24:13.981Z,-1.9
2024-01-16T03:25:14.196Z,-1.9
2024-01-16T03:26:14.486Z,-1.9
2024-01-16T03:27:14.732Z,-1.9
2024-01-16T03:28:14.892Z,-1.9
2024-01-16T03:29:15.080Z,-1.9
2024-01-16T03:30:15.508Z,-1.9
2024-01-16T03:31:16.074Z,-1.9
2024-01-16T03:32:16.496Z,-1.9
2024-01-16T03:33:16.970Z,-1.9
2024-01-16T03:34:17.617Z,-1.9
2024-01-16T03:35:17.862Z,-1.9
2024-01-16T03:36:18.063Z,-1.9
2024-01-16T03:37:18.216Z,-1.9
2024-01-16T03:38:18.445Z,-1.9
2024-01-16T03:39:18.646Z,-1.9
2024-01-16T03:40:18.814Z,-1.9
2024-01-16T03:41:19.036Z,-1.9
2024-01-16T03:42:19.240Z,-1.9
2024-01-16T03:43:19.384Z,-1.5
2024-01-16T03:44:19.614Z,-1.5
2024-01-16T03:45:19.825Z,-1.5
2024-01-16T03:46:20.000Z,-1.5
2024-01-16T03:47:20.216Z,-1.5
2024-01-16T03:48:20.703Z,-1.5
2024-01-16T03:49:21.223Z,-1.5
2024-01-16T03:50:21.605Z,-1.5
2024-01-16T03:51:21.798Z,-1.5
2024-01-16T03:52:21.956Z,-1.5
2024-01-16T03:53:22.144Z,-1.5
2024-01-16T03:54:22.338Z,-1.5
2024-01-16T03:55:22.521Z,-1.5
2024-01-16T03:56:22.815Z,-1.5
2024-01-16T03:57:23.043Z,-1.5
2024-01-16T03:58:23.183Z,-1.5
2024-01-16T03:59:23.451Z,-1.5
2024-01-16T04:00:23.683Z,-1.5
2024-01-16T04:01:23.827Z,-1.5
2024-01-16T04:02:24.038Z,-1.5
2024-01-16T04:03:24.371Z,-1.5
2024-01-16T04:04:24.673Z,-1.5
2024-01-16T04:05:24.962Z,-1.5
2024-01-16T04:06:25.526Z,-1.5
2024-01-16T04:07:25.930Z,-1.5
2024-01-16T04:08:26.176Z,-1.5
2024-01-16T04:09:26.370Z,-1.5
2024-01-16T04:10:26.534Z,-1.5
2024-01-16T04:11:26.757Z,-1.5
2024-01-16T04:12:26.933Z,-1.5
2024-01-16T04:13:27.080Z,-1.5
2024-01-16T04:14:27.326Z,-1.5
2024-01-16T04:15:27.528Z,-1.5
2024-01-16T04:16:27.679Z,-1.5
2024-01-16T04:17:27.888Z,-1.5
2024-01-16T04:18:28.199Z,-1.5
2024-01-16T04:19:28.611Z,-1.5
2024-01-16T04:20:28.853Z,-1.5
2024-01-16T04:21:29.100Z,-1.5
2024-01-16T04:22:29.253Z,-1.5
2024-01-16T04:23:29.457Z,-1.5
2024-01-16T04:24:29.636Z,-1.5
2024-01-16T04:25:29.799Z,-1.5
2024-01-16T04:26:30.025Z,-1.5
2024-01-16T04:27:30.227Z,-1.5
2024-01-16T04:28:30.394Z,-1.5
2024-01-16T04:29:30.626Z,-1.5
2024-01-16T04:30:30.925Z,-1.5
2024-01-16T04:31:31.161Z,-1.5
2024-01-16T04:32:31.812Z,-1.5
2024-01-16T04:33:32.566Z,-1.5
2024-01-16T04:34:33.204Z,-1.5
2024-01-16T04:35:33.451Z,-1.5
2024-01-16T04:36:33.681Z,-1.5
2024-01-16T04:37:33.828Z,-1.5
2024-01-16T04:38:34.124Z,-1.5
2024-01-16T04:39:34.319Z,-1.5
2024-01-16T04:40:34.498Z,-1.5
2024-01-16T04:41:34.710Z,-1.5
2024-01-16T04:42:34.941Z,-1.3
2024-01-16T04:43:35.142Z,-1.3
2024-01-16T04:44:35.433Z,-1.3
2024-01-16T04:45:35.775Z,-1.3
2024-01-16T04:46:36.065Z,-1.3
2024-01-16T04:47:36.417Z,-1.3
2024-01-16T04:48:37.103Z,-1.3
2024-01-16T04:49:37.501Z,-1.3
2024-01-16T04:50:37.806Z,-1.3
2024-01-16T04:51:38.050Z,-1.3
2024-01-16T04:52:38.220Z,-1.3
2024-01-16T04:53:38.492Z,-1.3
2024-01-16T04:54:38.715Z,-1.3
2024-01-16T04:55:38.906Z,-1.3
2024-01-16T04:56:39.103Z,-1.3
2024-01-16T04:57:39.321Z,-1.3
2024-01-16T04:58:39.473Z,-1.3
2024-01-16T04:59:39.741Z,-1.3
2024-01-16T05:00:40.054Z,-1.3
2024-01-16T05:01:40.283Z,-1.3
2024-01-16T05:02:40.569Z,-1.3
2024-01-16T05:03:40.911Z,-1.3
2024-01-16T05:04:41.149Z,-1.3
2024-01-16T05:05:41.501Z,-1.3
2024-01-16T05:06:42.072Z,-1.3
2024-01-16T05:07:42.605Z,-1.3
2024-01-16T05:08:42.924Z,-1.3
2024-01-16T05:09:43.116Z,-1.3
2024-01-16T05:10:45.905Z,-1.3
2024-01-16T05:11:46.203Z,-1.3
2024-01-16T05:12:46.533Z,-1.3
2024-01-16T05:13:46.687Z,-1.3
2024-01-16T05:14:47.019Z,-1.3
2024-01-16T05:15:47.398Z,-1.3
2024-01-16T05:16:47.565Z,-1.3
2024-01-16T05:17:47.957Z,-1.3
2024-01-16T05:18:48.586Z,-1.3
2024-01-16T05:19:48.888Z,-1.3
2024-01-16T05:20:49.224Z,-1.3
2024-01-16T05:21:49.471Z,-1.3
2024-01-16T05:22:49.672Z,-1.3
2024-01-16T05:23:50.004Z,-1.3
2024-01-16T05:24:50.392Z,-1.3
2024-01-16T05:25:50.563Z,-1.3
2024-01-16T05:26:50.915Z,-1.3
2024-01-16T05:27:51.227Z,-1.3
2024-01-16T05:28:51.383Z,-1.3
2024-01-16T05:29:51.598Z,-1.3
2024-01-16T05:30:52.000Z,-1.3
2024-01-16T05:31:52.342Z,-1.3
2024-01-16T05:32:52.649Z,-1.3
2024-01-16T05:33:53.169Z,-1.3
2024-01-16T05:34:53.526Z,-1.3
2024-01-16T05:35:53.738Z,-1.3
2024-01-16T05:36:54.010Z,-1.3
2024-01-16T05:37:54.156Z,-1.3
2024-01-16T05:38:54.371Z,-1.3
2024-01-16T05:39:54.653Z,-1.3
2024-01-16T05:40:54.800Z,-1.3
2024-01-16T05:41:55.142Z,-1.3
2024-01-16T05:42:55.434Z,-1.4
2024-01-16T05:43:55.607Z,-1.4
2024-01-16T05:44:55.828Z,-1.4
2024-01-16T05:45:56.183Z,-1.4
2024-01-16T05:46:56.321Z,-1.4
2024-01-16T05:47:56.617Z,-1.4
2024-01-16T05:48:57.026Z,-1.4
2024-01-16T05:49:57.568Z,-1.4
2024-01-16T05:50:57.941Z,-1.4
2024-01-16T05:51:58.149Z,-1.4
2024-01-16T05:52:58.298Z,-1.4
2024-01-16T05:53:58.470Z,-1.4
2024-01-16T05:54:58.675Z,-1.4
2024-01-16T05:55:58.940Z,-1.4
2024-01-16T05:56:59.337Z,-1.4
2024-01-16T05:57:59.659Z,-1.4
2024-01-16T05:58:59.827Z,-1.4
2024-01-16T05:59:59.973Z,-1.4
2024-01-16T06:01:00.324Z,-1.4
2024-01-16T06:02:00.652Z,-1.4
2024-01-16T06:03:00.863Z,-1.4
2024-01-16T06:04:01.121Z,-1.4
2024-01-16T06:05:01.371Z,-1.4
2024-01-16T06:06:02.044Z,-1.4
2024-01-16T06:07:02.584Z,-1.4
2024-01-16T06:08:02.815Z,-1.4
2024-01-16T06:09:02.973Z,-1.4
2024-01-16T06:10:06.554Z,-1.4
2024-01-16T06:11:07.367Z,-1.4
2024-01-16T06:12:07.582Z,-1.4
2024-01-16T06:13:07.709Z,-1.4
2024-01-16T06:14:07.904Z,-1.4
2024-01-16T06:15:08.192Z,-1.4
2024-01-16T06:16:08.345Z,-1.4
2024-01-16T06:17:08.575Z,-1.4
2024-01-16T06:18:08.944Z,-1.4
2024-01-16T06:19:09.909Z,-1.4
2024-01-16T06:20:10.355Z,-1.4
2024-01-16T06:21:10.661Z,-1.4
2024-01-16T06:22:10.815Z,-1.4
2024-01-16T06:23:11.052Z,-1.4
2024-01-16T06:24:11.282Z,-1.4
2024-01-16T06:25:11.440Z,-1.4
2024-01-16T06:26:11.654Z,-1.4
2024-01-16T06:27:11.931Z,-1.4
2024-01-16T06:28:12.080Z,-1.4
2024-01-16T06:29:28.485Z,-1.4
2024-01-16T06:30:36.201Z,-1.3
2024-01-16T06:31:36.548Z,-1.3
2024-01-16T06:32:37.005Z,-1.3
2024-01-16T06:33:37.783Z,-1.3
2024-01-16T06:34:38.296Z,-1.3
2024-01-16T06:35:38.709Z,-1.3
2024-01-16T06:36:39.022Z,-1.3
2024-01-16T06:37:39.169Z,-1.3
2024-01-16T06:38:39.400Z,-1.3
2024-01-16T06:39:39.616Z,-1.3
2024-01-16T06:40:39.771Z,-1.3
2024-01-16T06:41:40.056Z,-1.3
2024-01-16T06:42:40.297Z,-1.3
2024-01-16T06:43:40.445Z,-1.3
2024-01-16T06:44:40.733Z,-1.3
2024-01-16T06:45:40.966Z,-1.3
2024-01-16T06:46:41.139Z,-1.3
2024-01-16T06:47:41.486Z,-1.3
2024-01-16T06:48:42.137Z,-1.3
2024-01-16T06:49:42.800Z,-1.3
2024-01-16T06:50:43.198Z,-1.3
2024-01-16T06:51:43.441Z,-1.3
2024-01-16T06:52:43.588Z,-1.3
2024-01-16T06:53:43.873Z,-1.3
2024-01-16T06:54:44.137Z,-1.3
2024-01-16T06:55:44.299Z,-1.3
2024-01-16T06:56:44.524Z,-1.3
2024-01-16T06:57:44.746Z,-1.3
2024-01-16T06:58:44.934Z,-1.3
2024-01-16T06:59:45.209Z,-1.3
2024-01-16T07:00:45.467Z,-1.3
2024-01-16T07:01:45.690Z,-1.3
2024-01-16T07:02:46.151Z,-1.3
2024-01-16T07:03:46.528Z,-1.3
2024-01-16T07:04:46.851Z,-1.3
2024-01-16T07:05:47.256Z,-1.3
2024-01-16T07:06:47.553Z,-1.3
2024-01-16T07:07:47.724Z,-1.3
2024-01-16T07:08:48.110Z,-1.3
2024-01-16T07:09:48.442Z,-1.3
2024-01-16T07:10:48.575Z,-1.3
2024-01-16T07:11:48.786Z,-1.3
2024-01-16T07:12:49.128Z,-1.3
2024-01-16T07:13:49.274Z,-1.3
2024-01-16T07:14:49.505Z,-1.3
2024-01-16T07:15:49.892Z,-1.3
2024-01-16T07:16:50.048Z,-1.3
2024-01-16T07:17:50.434Z,-1.3
2024-01-16T07:18:50.944Z,-1.3
2024-01-16T07:19:51.326Z,-1.3
2024-01-16T07:20:51.704Z,-1.3
2024-01-16T07:21:52.152Z,-1.3
2024-01-16T07:22:52.328Z,-1.3
2024-01-16T07:23:52.660Z,-1.3
2024-01-16T07:24:53.070Z,-1.3
2024-01-16T07:25:53.264Z,-1.3
2024-01-16T07:26:53.546Z,-1.3
2024-01-16T07:27:53.793Z,-1.3
2024-01-16T07:28:53.952Z,-1.3
2024-01-16T07:29:54.245Z,-1.3
2024-01-16T07:30:54.674Z,-1.3
2024-01-16T07:31:54.958Z,-1.3
2024-01-16T07:32:55.384Z,-1.3
2024-01-16T07:33:56.353Z,-1.3
2024-01-16T07:34:57.042Z,-1.3
2024-01-16T07:35:57.257Z,-1.3
2024-01-16T07:36:57.441Z,-1.3
2024-01-16T07:37:57.674Z,-1.3
2024-01-16T07:38:57.943Z,-1.3
2024-01-16T07:39:58.169Z,-1.3
2024-01-16T07:40:58.321Z,-1.3
2024-01-16T07:41:58.553Z,-1.3
2024-01-16T07:42:58.759Z,-1.6
2024-01-16T07:43:58.927Z,-1.6
2024-01-16T07:44:59.099Z,-1.6
2024-01-16T07:45:59.434Z,-1.6
2024-01-16T07:46:59.876Z,-1.6
2024-01-16T07:48:00.315Z,-1.6
2024-01-16T07:49:00.965Z,-1.6
2024-01-16T07:50:05.080Z,-1.6
2024-01-16T07:51:08.884Z,-1.7
2024-01-16T07:52:09.039Z,-1.7
2024-01-16T07:53:09.227Z,-1.7
2024-01-16T07:54:09.517Z,-1.7
2024-01-16T07:55:09.738Z,-1.7
2024-01-16T07:56:09.961Z,-1.7
2024-01-16T07:57:10.186Z,-1.7
2024-01-16T07:58:10.351Z,-1.7
2024-01-16T07:59:10.608Z,-1.7
2024-01-16T08:00:10.893Z,-1.7
2024-01-16T08:01:11.147Z,-1.7
2024-01-16T08:02:11.418Z,-1.7
2024-01-16T08:03:11.982Z,-1.7
2024-01-16T08:04:12.788Z,-1.7
2024-01-16T08:05:13.646Z,-1.7
2024-01-16T08:06:14.119Z,-1.7
2024-01-16T08:07:14.390Z,-1.7
2024-01-16T08:08:14.616Z,-1.7
2024-01-16T08:09:14.877Z,-1.7
2024-01-16T08:10:19.452Z,-1.7
2024-01-16T08:11:20.226Z,-1.6
2024-01-16T08:12:20.471Z,-1.6
2024-01-16T08:13:20.625Z,-1.6
2024-01-16T08:14:20.812Z,-1.6
2024-01-16T08:15:21.025Z,-1.6
2024-01-16T08:16:21.183Z,-1.6
2024-01-16T08:17:21.385Z,-1.6
2024-01-16T08:18:21.847Z,-1.6
2024-01-16T08:19:22.465Z,-1.6
2024-01-16T08:20:22.913Z,-1.6
2024-01-16T08:21:23.170Z,-1.6
2024-01-16T08:22:23.328Z,-1.6
2024-01-16T08:23:23.567Z,-1.6
2024-01-16T08:24:23.893Z,-1.6
2024-01-16T08:25:24.089Z,-1.6
2024-01-16T08:26:24.271Z,-1.6
2024-01-16T08:27:24.406Z,-1.6
2024-01-16T08:28:24.546Z,-1.6
2024-01-16T08:29:24.799Z,-1.6
2024-01-16T08:30:25.048Z,-1.6
2024-01-16T08:31:25.277Z,-1.6
2024-01-16T08:32:25.681Z,-1.6
2024-01-16T08:33:37.387Z,-1.6
2024-01-16T08:34:48.740Z,-1.3
2024-01-16T08:35:49.149Z,-1.3
2024-01-16T08:36:49.388Z,-1.3
2024-01-16T08:37:49.572Z,-1.3
2024-01-16T08:38:49.977Z,-1.3
2024-01-16T08:39:50.303Z,-1.3
2024-01-16T08:40:50.482Z,-1.3
2024-01-16T08:41:50.722Z,-1.3
2024-01-16T08:42:54.428Z,-0.8
2024-01-16T08:43:58.420Z,-0.8
2024-01-16T08:44:58.781Z,-0.8
2024-01-16T08:45:59.222Z,-0.8
2024-01-16T08:46:59.370Z,-0.8
2024-01-16T08:47:59.728Z,-0.8
2024-01-16T08:49:00.226Z,-0.8
2024-01-16T08:50:00.560Z,-0.8
2024-01-16T08:51:01.572Z,-0.8
2024-01-16T08:52:01.794Z,-0.8
2024-01-16T08:53:01.974Z,-0.8
2024-01-16T08:54:02.205Z,-0.8
2024-01-16T08:55:02.441Z,-0.8
2024-01-16T08:56:02.631Z,-0.8
2024-01-16T08:57:02.794Z,-0.8
2024-01-16T08:58:02.948Z,-0.8
2024-01-16T08:59:03.156Z,0.2
2024-01-16T09:00:03.487Z,0.2
2024-01-16T09:01:03.787Z,0.2
2024-01-16T09:02:03.986Z,0.2
2024-01-16T09:03:05.733Z,0.2
2024-01-16T09:04:06.122Z,0.2
2024-01-16T09:05:06.609Z,0.2
2024-01-16T09:06:07.217Z,0.2
2024-01-16T09:07:08.358Z,0.2
2024-01-16T09:08:13.726Z,1.2
2024-01-16T09:09:14.479Z,1.3
2024-01-16T09:10:14.670Z,1.3
2024-01-16T09:11:14.899Z,1.3
2024-01-16T09:12:15.137Z,1.3
2024-01-16T09:13:15.365Z,1.3
2024-01-16T09:14:15.622Z,1.3
2024-01-16T09:15:15.861Z,1.3
2024-01-16T09:16:16.026Z,1.3
2024-01-16T09:17:16.306Z,2.2
2024-01-16T09:18:16.705Z,2.2
2024-01-16T09:19:17.332Z,2.2
2024-01-16T09:20:17.715Z,2.2
2024-01-16T09:21:17.916Z,2.2
2024-01-16T09:22:18.063Z,2.2
2024-01-16T09:23:18.342Z,2.2
2024-01-16T09:24:18.569Z,2.2
2024-01-16T09:25:18.784Z,2.2
2024-01-16T09:26:19.036Z,3.2
2024-01-16T09:27:19.261Z,3.2
2024-01-16T09:28:19.419Z,3.2
2024-01-16T09:29:19.634Z,3.2
2024-01-16T09:30:20.274Z,3.2
2024-01-16T09:31:20.507Z,3.2
2024-01-16T09:32:20.894Z,3.2
2024-01-16T09:33:21.424Z,3.2
2024-01-16T09:34:21.842Z,3.2
2024-01-16T09:35:22.110Z,3.2
2024-01-16T09:36:22.348Z,4.19
2024-01-16T09:37:22.496Z,4.19
2024-01-16T09:38:23.932Z,4.19
2024-01-16T09:39:24.318Z,4.19
2024-01-16T09:40:24.478Z,4.19
2024-01-16T09:41:24.782Z,4.19
2024-01-16T09:42:24.963Z,4.19
2024-01-16T09:43:25.141Z,4.19
2024-01-16T09:44:25.370Z,4.19
2024-01-16T09:45:25.575Z,4.19
2024-01-16T09:46:25.792Z,4.19
2024-01-16T09:47:26.241Z,4.19
2024-01-16T09:48:26.742Z,4.19
2024-01-16T09:49:27.221Z,4.19
2024-01-16T09:50:27.516Z,4.19
2024-01-16T09:51:27.693Z,4.19
2024-01-16T09:52:27.887Z,4.19
2024-01-16T09:53:28.072Z,4.19
2024-01-16T09:54:28.307Z,4.19
2024-01-16T09:55:28.481Z,4.19
2024-01-16T09:56:28.658Z,4.19
2024-01-16T09:57:28.843Z,4.19
2024-01-16T09:58:28.986Z,4.19
2024-01-16T09:59:29.223Z,4.19
2024-01-16T10:00:29.524Z,4.19
2024-01-16T10:01:29.823Z,4.19
2024-01-16T10:02:30.017Z,4.19
2024-01-16T10:03:30.286Z,4.19
2024-01-16T10:04:30.598Z,4.19
2024-01-16T10:05:30.910Z,4.19
2024-01-16T10:06:31.295Z,4.19
2024-01-16T10:07:31.569Z,4.19
2024-01-16T10:08:31.807Z,4.19
2024-01-16T10:09:32.045Z,4.19
2024-01-16T10:10:47.650Z,4.19
2024-01-16T10:11:52.138Z,4.1
2024-01-16T10:12:52.376Z,4.1
2024-01-16T10:13:52.544Z,4.1
2024-01-16T10:14:52.808Z,4.1
2024-01-16T10:15:53.018Z,4.1
2024-01-16T10:16:53.166Z,4.1
2024-01-16T10:17:53.488Z,4.1
2024-01-16T10:18:53.974Z,4.1
2024-01-16T10:19:54.527Z,4.1
2024-01-16T10:20:55.165Z,4.1
2024-01-16T10:21:55.670Z,4.1
2024-01-16T10:22:55.871Z,4.1
2024-01-16T10:23:56.134Z,4.1
2024-01-16T10:24:56.394Z,4.1
2024-01-16T10:25:56.557Z,4.1
2024-01-16T10:26:56.968Z,4.1
2024-01-16T10:27:57.205Z,4.1
2024-01-16T10:28:57.356Z,4.1
2024-01-16T10:29:57.725Z,4.1
2024-01-16T10:30:58.487Z,4.1
2024-01-16T10:31:58.900Z,4.1
2024-01-16T10:32:59.548Z,4.1
2024-01-16T10:34:00.366Z,4.1
2024-01-16T10:35:01.028Z,4.1
2024-01-16T10:36:01.551Z,3.3
2024-01-16T10:37:01.971Z,3.3
2024-01-16T10:38:02.155Z,3.3
2024-01-16T10:39:02.318Z,3.3
2024-01-16T10:40:02.466Z,3.3
2024-01-16T10:41:02.663Z,3.3
2024-01-16T10:42:02.822Z,3.3
2024-01-16T10:43:03.081Z,3.3
2024-01-16T10:44:03.268Z,3.3
2024-01-16T10:45:03.427Z,3.3
2024-01-16T10:46:03.587Z,3.3
2024-01-16T10:47:03.731Z,3.3
2024-01-16T10:48:05.165Z,3.3
2024-01-16T10:49:06.545Z,3.3
2024-01-16T10:50:06.871Z,3.3
2024-01-16T10:51:07.030Z,3.3
2024-01-16T10:52:07.174Z,4.3
2024-01-16T10:53:07.404Z,4.3
2024-01-16T10:54:07.861Z,4.3
2024-01-16T10:55:08.005Z,4.3
2024-01-16T10:56:08.151Z,4.3
2024-01-16T10:57:08.343Z,4.3
2024-01-16T10:58:13.750Z,4.3
2024-01-16T10:59:14.457Z,4.9
2024-01-16T11:00:14.666Z,4.9
2024-01-16T11:01:14.916Z,4.9
2024-01-16T11:02:15.206Z,4.9
2024-01-16T11:03:15.402Z,4.9
2024-01-16T11:04:16.530Z,5.3
2024-01-16T11:05:16.943Z,5.3
2024-01-16T11:06:17.590Z,5.3
2024-01-16T11:07:18.061Z,5.3
2024-01-16T11:08:18.751Z,5.3
2024-01-16T11:09:19.105Z,5.3
2024-01-16T11:10:19.250Z,5.3
2024-01-16T11:11:19.701Z,5.3
2024-01-16T11:12:19.927Z,5.3
2024-01-16T11:13:20.078Z,5.3
2024-01-16T11:14:24.276Z,5.3
2024-01-16T11:15:24.918Z,6.3
2024-01-16T11:16:25.114Z,6.3
2024-01-16T11:17:25.371Z,6.3
2024-01-16T11:18:25.884Z,6.3
2024-01-16T11:19:48.938Z,6.3
2024-01-16T11:21:22.014Z,7
2024-01-16T11:22:22.757Z,7
2024-01-16T11:23:23.233Z,7.3
2024-01-16T11:24:23.568Z,7.3
2024-01-16T11:25:23.725Z,7.3
2024-01-16T11:26:25.060Z,7.3
2024-01-16T11:27:25.296Z,7.3
2024-01-16T11:28:25.438Z,7.3
2024-01-16T11:29:25.655Z,7.3
2024-01-16T11:30:25.942Z,7.3
2024-01-16T11:31:26.098Z,7.3
2024-01-16T11:32:32.462Z,7.3
2024-01-16T11:33:34.378Z,7.9
2024-01-16T11:34:35.405Z,7.9
2024-01-16T11:35:35.811Z,7.9
2024-01-16T11:36:36.032Z,7.9
2024-01-16T11:37:36.171Z,7.9
2024-01-16T11:38:36.386Z,7.9
2024-01-16T11:39:36.566Z,7.9
2024-01-16T11:40:36.730Z,8.3
2024-01-16T11:41:43.146Z,8.3
2024-01-16T11:42:43.435Z,8.3
2024-01-16T11:43:43.612Z,8.3
2024-01-16T11:44:44.325Z,8.3
2024-01-16T11:45:44.977Z,8.3
2024-01-16T11:46:45.121Z,8.3
2024-01-16T11:47:45.560Z,8.3
2024-01-16T11:48:46.248Z,8.3
2024-01-16T11:49:46.668Z,8.3
2024-01-16T11:50:46.963Z,8.3
2024-01-16T11:51:47.205Z,8.3
2024-01-16T11:52:47.360Z,8.3
2024-01-16T11:53:47.659Z,8.3
2024-01-16T11:54:48.081Z,8.3
2024-01-16T11:55:48.227Z,8.3
2024-01-16T11:56:49.592Z,8.3
2024-01-16T11:57:49.856Z,9.3
2024-01-16T11:58:50.008Z,9.3
2024-01-16T11:59:50.352Z,9.3
2024-01-16T12:00:50.735Z,9.3
2024-01-16T12:01:50.934Z,9.3
2024-01-16T12:02:51.334Z,9.3
2024-01-16T12:03:51.825Z,9.3
2024-01-16T12:04:51.984Z,9.3
2024-01-16T12:05:52.307Z,9.3
2024-01-16T12:06:53.002Z,9.3
2024-01-16T12:07:53.602Z,9.3
2024-01-16T12:08:54.280Z,9.3
2024-01-16T12:09:54.541Z,9.3
2024-01-16T12:10:54.698Z,9.3
2024-01-16T12:11:54.883Z,9.3
2024-01-16T12:12:55.087Z,9.3
2024-01-16T12:13:55.227Z,10.3
2024-01-16T12:14:55.766Z,10.3
2024-01-16T12:15:56.243Z,10.3
2024-01-16T12:16:56.398Z,10.3
2024-01-16T12:17:57.215Z,10.3
2024-01-16T12:18:57.895Z,10.3
2024-01-16T12:19:58.432Z,10.3
2024-01-16T12:20:58.807Z,10.3
2024-01-16T12:21:58.989Z,10.3
2024-01-16T12:22:59.139Z,10.3
2024-01-16T12:24:11.007Z,10.3
2024-01-16T12:25:18.386Z,11.1
2024-01-16T12:26:18.621Z,11.1
2024-01-16T12:27:18.835Z,11.1
2024-01-16T12:28:32.779Z,11.1
2024-01-16T12:29:34.651Z,11.1
2024-01-16T12:30:34.955Z,11.1
2024-01-16T12:31:35.154Z,11.1
2024-01-16T12:32:35.445Z,11.1
2024-01-16T12:33:36.017Z,11.1
2024-01-16T12:34:36.933Z,11.1
2024-01-16T12:35:37.993Z,11.1
2024-01-16T12:36:38.336Z,11.1
2024-01-16T12:37:38.461Z,11.1
2024-01-16T12:38:38.662Z,11.1
2024-01-16T12:39:38.943Z,11.1
2024-01-16T12:40:39.114Z,11.1
2024-01-16T12:41:43.447Z,11.1
2024-01-16T12:42:44.253Z,10.3
2024-01-16T12:43:44.431Z,10.3
2024-01-16T12:44:44.658Z,10.3
2024-01-16T12:45:44.879Z,10.3
2024-01-16T12:46:45.064Z,10.3
2024-01-16T12:47:45.456Z,10.3
2024-01-16T12:49:00.571Z,10.3
2024-01-16T12:50:06.877Z,9.89
2024-01-16T12:51:07.335Z,9.89
2024-01-16T12:52:07.645Z,9.89
2024-01-16T12:53:07.799Z,9.89
2024-01-16T12:54:08.108Z,9.89
2024-01-16T12:55:08.381Z,9.89
2024-01-16T12:56:08.595Z,9.89
2024-01-16T12:57:08.811Z,9.89
2024-01-16T12:58:09.031Z,9.89
2024-01-16T12:59:09.196Z,9.89
2024-01-16T13:00:09.361Z,9.89
2024-01-16T13:01:09.589Z,9.89
2024-01-16T13:02:09.792Z,9.89
2024-01-16T13:03:10.134Z,9.89
2024-01-16T13:04:10.416Z,9.89
2024-01-16T13:05:10.734Z,9.89
2024-01-16T13:06:11.263Z,9.89
2024-01-16T13:07:11.848Z,11.3
2024-01-16T13:08:12.261Z,11.3
2024-01-16T13:09:13.149Z,11.3
2024-01-16T13:10:14.181Z,11.3
2024-01-16T13:11:14.588Z,11.3
2024-01-16T13:12:14.992Z,11.3
2024-01-16T13:13:15.314Z,11.3
2024-01-16T13:14:15.504Z,11.3
2024-01-16T13:15:15.733Z,11.3
2024-01-16T13:16:15.880Z,11.3
2024-01-16T13:17:16.110Z,11.3
2024-01-16T13:18:16.505Z,11.3
2024-01-16T13:19:16.996Z,11.3
2024-01-16T13:20:17.313Z,11.3
2024-01-16T13:21:17.598Z,11.3
2024-01-16T13:22:17.751Z,11.3
2024-01-16T13:23:17.994Z,11.3
2024-01-16T13:24:18.356Z,11.3
2024-01-16T13:25:19.002Z,11.3
2024-01-16T13:26:19.236Z,11.3
2024-01-16T13:27:19.477Z,11.3
2024-01-16T13:28:23.396Z,11.3
2024-01-16T13:29:26.780Z,11.6
2024-01-16T13:30:44.095Z,11.6
2024-01-16T13:31:48.469Z,11.5